Nearby METAR Reports

 

KHIF - Hill Afb/Ogden, Utah, USA
Distance from station: ENE 6mi, 9km
Updated: Sat, 28-Nov-2020 5:58pm MST
Clear
Clear
 Wind from NNW
Wind: NNW 5 mph , 7 km/h
Temperature: 34°F , 1°C
Wind Chill: 29°F , -2°C
Dew Point: 21°F , -6°C
Humidity: 60%
Barometer: 30.29 inHg , 1025.7 hPa
Clouds: Clear
Visibility: 10 miles , 16 km
2020/11/29 00:58 KHIF 290058Z AUTO 33004KT 10SM CLR 01/M06 A3029 RMK AO2 SLP278 T00071060
KOGD - Ogden, Utah, USA
Distance from station: NNE 9mi, 14km
Updated: Sat, 28-Nov-2020 5:53pm MST
Clear
Clear
 Wind from calm
Wind: Calm
Temperature: 34°F , 1°C
Dew Point: 19°F , -7°C
Humidity: 56%
Barometer: 30.30 inHg , 1026.1 hPa
Clouds: Clear
Visibility: 10 miles , 16 km
2020/11/29 00:53 KOGD 290053Z 00000KT 10SM CLR 01/M07 A3030 RMK AO2 SLP280 T00061067
 
KSLC - Salt Lake City, Utah, USA
Distance from station: SSE 21mi, 34km
Updated: Sat, 28-Nov-2020 5:54pm MST
Few Clouds
Few Clouds
 Wind from NNW
Wind: NNW 8 mph , 13 km/h
Temperature: 34°F , 1°C
Wind Chill: 27°F , -3°C
Dew Point: 25°F , -4°C
Humidity: 70%
Barometer: 30.30 inHg , 1026.1 hPa
Clouds: Few Clouds
Visibility: 10 miles , 16 km
Cloud details: Few Clouds 25000 ft
2020/11/29 00:54 KSLC 290054Z 34007KT 10SM FEW250 01/M04 A3030 RMK AO2 SLP278 T00111044 $
KLGU - Logan, Utah, USA
Distance from station: NNE 50mi, 80km
Updated: Sat, 28-Nov-2020 5:51pm MST
Clear
Clear
 Wind from calm
Wind: Calm
Temperature: 32°F , 0°C
Dew Point: 19°F , -7°C
Humidity: 60%
Barometer: 30.31 inHg , 1026.4 hPa
Clouds: Clear
Visibility: 10 miles , 16 km
2020/11/29 00:51 KLGU 290051Z AUTO 00000KT 10SM CLR 00/M07 A3031 RMK AO2 SLP300 T00001067
 
K36U - Heber/Russ Mcdon, Utah, USA
Distance from station: SE 53mi, 85km
Updated: Wed, 11-Oct-2017 6:50pm MDT
NOT Current
Clear
Clear
 Wind from SSW
Wind: SSW 10 mph , 17 km/h, Gust: 18 mph , 30 km/h
Temperature: 63°F , 17°C
Dew Point: 16°F , -9°C
Humidity: 16%
Barometer: 29.87 inHg , 1011.5 hPa
Clouds: Clear
Visibility: 10 miles , 16 km
2017/10/12 00:50 K36U 120050Z AUTO 21009G16KT 10SM CLR 17/M09 A2987 RMK AO2
KEVW - Evanston, Wyoming, USA
Distance from station: ENE 55mi, 89km
Updated: Sat, 28-Nov-2020 5:53pm MST
Clear
Clear
 Wind from WSW
Wind: WSW 12 mph , 19 km/h
Temperature: 30°F , -1°C
Wind Chill: 20°F , -7°C
Dew Point: 16°F , -9°C
Humidity: 55%
Barometer: 30.25 inHg , 1024.4 hPa
Clouds: Clear
Visibility: 10 miles , 16 km
2020/11/29 00:53 KEVW 290053Z AUTO 25010KT 10SM CLR M01/M09 A3025 RMK AO2 SLP272 T10061089
 
KPVU - Provo Muni, Utah, USA
Distance from station: SSE 62mi, 100km
Updated: Sat, 28-Nov-2020 5:56pm MST
Clear
Clear
 Wind from NNW
Wind: NNW 5 mph , 7 km/h
Temperature: 30°F , -1°C
Wind Chill: 25°F , -4°C
Dew Point: 25°F , -4°C
Humidity: 80%
Barometer: 30.31 inHg , 1026.4 hPa
Clouds: Clear
Visibility: 10 miles , 16 km
2020/11/29 00:56 KPVU 290056Z 34004KT 10SM CLR M01/M04 A3031 RMK AO2 SLP299 T10061044
KDPG - Dugway Prvg Grou, Utah, USA
Distance from station: SW 75mi, 121km
Updated: Wed, 25-Nov-2020 3:55pm MST
NOT Current
Partly cloudy
Partly cloudy
 Wind from WNW
Wind: WNW 1 mph , 2 km/h
Temperature: 50°F , 10°C
Dew Point: 16°F , -9°C
Humidity: 25%
Barometer: 29.96 inHg , 1014.6 hPa
Clouds: Partly cloudy
Visibility: 50 miles , 80 km
Cloud details: Partly cloudy 11000 ft
Partly cloudy 22000 ft
2020/11/25 22:55 KDPG 252255Z 29001KT 50SM SCT110 SCT220 10/M09 A2996 RMK SLP149 T00981088 LAST
 
KENV - Wendover (aut), Utah, USA
Distance from station: WSW 105mi, 169km
Updated: Sat, 28-Nov-2020 5:56pm MST
Clear
Clear
 Wind from W
Wind: W 6 mph , 9 km/h
Temperature: 30°F , -1°C
Wind Chill: 24°F , -4°C
Dew Point: 18°F , -8°C
Humidity: 59%
Barometer: 30.31 inHg , 1026.4 hPa
Clouds: Clear
Visibility: 10 miles , 16 km
2020/11/29 00:56 KENV 290056Z AUTO 27005KT 10SM CLR M01/M08 A3031 RMK AO2 SLP308 T10061083 FZRANO
KPUC - Price, Utah, USA
Distance from station: SE 123mi, 197km
Updated: Sat, 28-Nov-2020 5:53pm MST
Clear
Clear
 Wind from NE
Wind: NE 7 mph , 11 km/h
Temperature: 28°F , -2°C
Wind Chill: 21°F , -6°C
Dew Point: 9°F , -13°C
Humidity: 43%
Barometer: 30.21 inHg , 1023 hPa
Clouds: Clear
Visibility: 10 miles , 16 km
2020/11/29 00:53 KPUC 290053Z AUTO 04006KT 10SM CLR M02/M13 A3021 RMK AO2 SLP289 T10221128
 
KPIH - Pocatello, Idaho, USA
Distance from station: NNW 130mi, 208km
Updated: Sat, 28-Nov-2020 5:53pm MST
Clear
Clear
 Wind from ENE
Wind: ENE 5 mph , 7 km/h
Temperature: 25°F , -4°C
Wind Chill: 19°F , -7°C
Dew Point: 19°F , -7°C
Humidity: 80%
Barometer: 30.34 inHg , 1027.4 hPa
Clouds: Clear
Visibility: 10 miles , 16 km
2020/11/29 00:53 KPIH 290053Z 06004KT 10SM CLR M04/M07 A3034 RMK AO2 SLP317 T10391072 $
KBYI - Burley, Idaho, USA
Distance from station: NW 134mi, 216km
Updated: Sat, 28-Nov-2020 5:53pm MST
Clear
Clear
 Wind from NW
Wind: NW 3 mph , 6 km/h
Temperature: 34°F , 1°C
Dew Point: 23°F , -5°C
Humidity: 65%
Barometer: 30.31 inHg , 1026.4 hPa
Clouds: Clear
Visibility: 10 miles , 16 km
2020/11/29 00:53 KBYI 290053Z AUTO 32003KT 10SM CLR 01/M05 A3031 RMK AO2 SLP291 T00061050
 
KVEL - Vernal, Utah, USA
Distance from station: ESE 140mi, 226km
Updated: Sat, 28-Nov-2020 5:53pm MST
Clear
Clear
 Wind from W
Wind: W 5 mph , 7 km/h
Temperature: 21°F , -6°C
Wind Chill: 14°F , -10°C
Dew Point: 12°F , -11°C
Humidity: 68%
Barometer: 30.24 inHg , 1024 hPa
Clouds: Clear
Visibility: 10 miles , 16 km
2020/11/29 00:53 KVEL 290053Z AUTO 26004KT 10SM CLR M06/M11 A3024 RMK AO2 SLP294 T10611111
KBPI - Big Piney, Wyoming, USA
Distance from station: NE 145mi, 234km
Updated: Sat, 28-Nov-2020 5:53pm MST
Clear
Clear
 Wind from NNW
Wind: NNW 14 mph , 22 km/h
Temperature: 28°F , -2°C
Wind Chill: 17°F , -8°C
Dew Point: 5°F , -15°C
Humidity: 37%
Barometer: 30.20 inHg , 1022.7 hPa
Clouds: Clear
Visibility: 10 miles , 16 km
2020/11/29 00:53 KBPI 290053Z AUTO 34012KT 10SM CLR M02/M15 A3020 RMK AO2 SLP282 T10171150